Naples, Utah
Current Conditions -  °F | °C
As of 1:53 AM on Thursday 27 Nov 2014 (Local Time) from KVEL Reporting Station
Clear Clear  
Wind Chill: 25°   Ceiling: Unl
Heat Index: 30°   Visibility: 10mi
Dew Point: 22°   Wind: 5mph
Humidity: 72%   Direction: 300°WNW
Pressure: 30.4"   Gusts: NA
Location:  40.1055°N, 109.498°W
Report Text: KVEL 270853Z AUTO 30004KT 10SM CLR M01/M06 A3040 RMK AO2 SLP297 T10111056 51004
Loading
Personal Weather Stations






























Interactive Weather Map New forecast layout! Learn more

10-Day Weather Forecast

Advertisements
Track Severe Weather on mobile